createdAt,value
2022-10-25T00:02:19.976Z,18.12
2022-10-25T00:04:48.016Z,18.13
2022-10-25T00:07:15.625Z,18.08
2022-10-25T00:09:43.129Z,18.13
2022-10-25T00:12:10.894Z,18.10
2022-10-25T00:14:38.424Z,18.12
2022-10-25T00:17:05.866Z,18.19
2022-10-25T00:19:33.587Z,18.20
2022-10-25T00:22:01.027Z,18.22
2022-10-25T00:24:28.672Z,18.21
2022-10-25T00:26:56.509Z,18.24
2022-10-25T00:31:56.599Z,18.29
2022-10-25T00:34:24.048Z,18.27
2022-10-25T00:36:51.580Z,18.32
2022-10-25T00:39:19.309Z,18.27
2022-10-25T00:41:46.779Z,18.05
2022-10-25T00:44:36.214Z,18.21
2022-10-25T00:47:10.922Z,18.31
2022-10-25T00:49:38.363Z,18.35
2022-10-25T00:52:06.698Z,18.21
2022-10-25T00:54:37.537Z,18.16
2022-10-25T00:57:11.613Z,18.02
2022-10-25T00:59:39.625Z,18.06
2022-10-25T01:02:07.266Z,17.66
2022-10-25T01:04:35.075Z,17.72
2022-10-25T01:07:02.995Z,17.72
2022-10-25T01:09:32.203Z,17.87
2022-10-25T01:11:59.650Z,17.97
2022-10-25T01:14:28.195Z,17.69
2022-10-25T01:17:15.670Z,17.83
2022-10-25T01:20:09.753Z,17.73
2022-10-25T01:22:46.106Z,17.79
2022-10-25T01:25:30.600Z,17.58
2022-10-25T01:28:04.637Z,17.72
2022-10-25T01:31:10.142Z,17.76
2022-10-25T01:33:40.869Z,17.86
2022-10-25T01:36:18.319Z,17.77
2022-10-25T01:39:01.123Z,17.58
2022-10-25T01:41:51.548Z,17.77
2022-10-25T01:44:38.740Z,17.43
2022-10-25T01:47:15.094Z,17.43
2022-10-25T01:49:47.362Z,17.42
2022-10-25T01:52:18.601Z,17.61
2022-10-25T01:54:45.984Z,17.67
2022-10-25T01:57:22.232Z,17.11
2022-10-25T02:00:01.837Z,17.16
2022-10-25T02:02:33.448Z,17.44
2022-10-25T02:05:14.686Z,17.90
2022-10-25T02:07:43.956Z,17.97
2022-10-25T02:10:36.818Z,17.95
2022-10-25T02:13:09.884Z,18.06
2022-10-25T02:15:40.871Z,17.89
2022-10-25T02:18:14.306Z,18.01
2022-10-25T02:20:46.599Z,18.22
2022-10-25T02:23:15.607Z,18.05
2022-10-25T02:25:43.462Z,17.86
2022-10-25T02:28:12.988Z,17.59
2022-10-25T02:30:43.198Z,17.83
2022-10-25T02:33:12.001Z,17.61
2022-10-25T02:35:39.669Z,17.43
2022-10-25T02:38:07.518Z,17.87
2022-10-25T02:40:35.100Z,17.85
2022-10-25T02:43:02.551Z,17.68
2022-10-25T02:45:30.228Z,17.69
2022-10-25T02:47:57.647Z,17.82
2022-10-25T02:50:25.084Z,17.27
2022-10-25T02:52:52.766Z,17.33
2022-10-25T02:55:20.165Z,16.68
2022-10-25T02:57:47.575Z,16.82
2022-10-25T03:00:15.643Z,17.06
2022-10-25T03:02:43.073Z,16.42
2022-10-25T03:05:10.509Z,16.58
2022-10-25T03:07:38.282Z,16.95
2022-10-25T03:10:06.286Z,16.57
2022-10-25T03:12:33.684Z,17.25
2022-10-25T03:15:01.421Z,17.23
2022-10-25T03:17:28.851Z,17.39
2022-10-25T03:19:56.269Z,17.48
2022-10-25T03:22:23.989Z,17.26
2022-10-25T03:24:51.387Z,17.40
2022-10-25T03:27:18.917Z,16.83
2022-10-25T03:29:46.590Z,16.85
2022-10-25T03:32:14.009Z,17.18
2022-10-25T03:34:41.441Z,17.08
2022-10-25T03:37:09.131Z,16.48
2022-10-25T03:39:36.537Z,16.61
2022-10-25T03:42:04.082Z,16.89
2022-10-25T03:44:31.863Z,16.50
2022-10-25T03:46:59.303Z,16.67
2022-10-25T03:49:26.847Z,16.71
2022-10-25T03:51:57.824Z,17.32
2022-10-25T03:54:29.236Z,17.19
2022-10-25T03:56:57.428Z,16.87
2022-10-25T03:59:24.886Z,16.77
2022-10-25T04:01:52.345Z,17.06
2022-10-25T04:04:20.374Z,16.87
2022-10-25T04:06:47.765Z,16.75
2022-10-25T04:09:15.386Z,16.81
2022-10-25T04:11:45.529Z,17.06
2022-10-25T04:14:13.668Z,16.92
2022-10-25T04:16:41.098Z,16.69
2022-10-25T04:19:08.760Z,16.93
2022-10-25T04:21:36.166Z,16.77
2022-10-25T04:24:04.576Z,17.19
2022-10-25T04:26:34.991Z,17.45
2022-10-25T04:29:03.155Z,17.15
2022-10-25T04:31:30.941Z,17.27
2022-10-25T04:33:58.819Z,17.34
2022-10-25T04:36:28.726Z,17.44
2022-10-25T04:38:56.618Z,17.68
2022-10-25T04:41:24.345Z,17.84
2022-10-25T04:43:52.305Z,17.68
2022-10-25T04:46:20.448Z,17.46
2022-10-25T04:48:48.195Z,17.63
2022-10-25T04:51:15.987Z,17.53
2022-10-25T04:53:43.469Z,17.49
2022-10-25T04:56:13.133Z,17.71
2022-10-25T04:58:40.859Z,17.89
2022-10-25T05:01:11.625Z,17.57
2022-10-25T05:03:39.625Z,17.59
2022-10-25T05:06:07.001Z,17.14
2022-10-25T05:08:34.811Z,17.31
2022-10-25T05:11:02.488Z,17.34
2022-10-25T05:13:33.012Z,17.34
2022-10-25T05:16:01.115Z,17.35
2022-10-25T05:18:29.202Z,17.35
2022-10-25T05:21:04.113Z,17.27
2022-10-25T05:23:32.147Z,17.39
2022-10-25T05:26:03.893Z,17.65
2022-10-25T05:28:31.873Z,17.83
2022-10-25T05:31:06.551Z,17.76
2022-10-25T05:33:34.291Z,17.68
2022-10-25T05:36:03.449Z,17.51
2022-10-25T05:38:34.195Z,17.34
2022-10-25T05:41:05.044Z,17.37
2022-10-25T05:43:32.608Z,17.54
2022-10-25T05:46:10.978Z,17.37
2022-10-25T05:48:38.927Z,17.57
2022-10-25T05:51:40.358Z,17.46
2022-10-25T05:54:11.419Z,17.68
2022-10-25T05:56:39.447Z,17.17
2022-10-25T05:59:12.326Z,17.41
2022-10-25T06:01:41.641Z,17.84
2022-10-25T06:04:09.905Z,17.75
2022-10-25T06:06:39.013Z,17.76
2022-10-25T06:09:07.322Z,17.33
2022-10-25T06:11:35.405Z,17.64
2022-10-25T06:14:03.029Z,17.68
2022-10-25T06:16:30.453Z,17.53
2022-10-25T06:18:58.238Z,17.82
2022-10-25T06:21:28.521Z,17.64
2022-10-25T06:23:56.693Z,17.96
2022-10-25T06:26:27.092Z,17.83
2022-10-25T06:28:56.788Z,17.65
2022-10-25T06:31:24.831Z,18.01
2022-10-25T06:33:52.819Z,17.98
2022-10-25T06:36:22.444Z,17.97
2022-10-25T06:38:50.660Z,18.03
2022-10-25T06:41:21.712Z,18.01
2022-10-25T06:43:49.350Z,17.90
2022-10-25T06:46:23.174Z,18.27
2022-10-25T06:48:51.707Z,18.38
2022-10-25T06:51:19.915Z,18.35
2022-10-25T06:53:47.580Z,18.27
2022-10-25T06:56:15.266Z,18.50
2022-10-25T06:58:43.113Z,18.34
2022-10-25T07:01:13.003Z,18.32
2022-10-25T07:03:41.264Z,18.36
2022-10-25T07:06:11.419Z,18.52
2022-10-25T07:08:40.900Z,18.56
2022-10-25T07:11:14.513Z,18.67
2022-10-25T07:13:42.000Z,18.57
2022-10-25T07:16:12.162Z,18.48
2022-10-25T07:18:39.624Z,18.58
2022-10-25T07:21:10.707Z,18.44
2022-10-25T07:23:42.399Z,18.53
2022-10-25T07:26:15.329Z,18.38
2022-10-25T07:28:44.630Z,18.32
2022-10-25T07:31:13.817Z,18.27
2022-10-25T07:33:41.295Z,18.12
2022-10-25T07:36:11.498Z,18.38
2022-10-25T07:38:39.412Z,18.09
2022-10-25T07:41:07.327Z,18.03
2022-10-25T07:43:35.374Z,18.34
2022-10-25T07:46:03.234Z,18.40
2022-10-25T07:48:30.956Z,18.19
2022-10-25T07:51:02.996Z,18.17
2022-10-25T07:53:30.471Z,17.72
2022-10-25T07:55:58.020Z,17.81
2022-10-25T07:58:25.729Z,18.02
2022-10-25T08:00:53.200Z,18.14
2022-10-25T08:03:20.933Z,18.43
2022-10-25T08:05:48.601Z,18.53
2022-10-25T08:08:16.134Z,18.37
2022-10-25T08:10:44.306Z,18.48
2022-10-25T08:13:12.120Z,18.82
2022-10-25T08:15:41.015Z,18.80
2022-10-25T08:18:09.691Z,18.44
2022-10-25T08:21:00.610Z,18.87
2022-10-25T08:23:25.417Z,18.79
2022-10-25T08:25:52.831Z,18.70
2022-10-25T08:28:20.590Z,18.72
2022-10-25T08:30:48.320Z,18.80
2022-10-25T08:33:15.736Z,18.71
2022-10-25T08:35:43.175Z,18.78
2022-10-25T08:38:10.937Z,18.75
2022-10-25T08:41:06.790Z,18.74
2022-10-25T08:43:53.325Z,18.66
2022-10-25T08:46:26.114Z,18.82
2022-10-25T08:49:07.262Z,18.55
2022-10-25T08:51:38.713Z,18.56
2022-10-25T08:54:25.184Z,19.00
2022-10-25T08:57:16.584Z,19.06
2022-10-25T08:59:48.625Z,18.62
2022-10-25T09:02:24.064Z,18.78
2022-10-25T09:04:51.843Z,18.87
2022-10-25T09:07:23.213Z,18.79
2022-10-25T09:10:14.557Z,18.93
2022-10-25T09:12:52.405Z,18.91
2022-10-25T09:15:51.355Z,19.13
2022-10-25T09:18:19.464Z,19.08
2022-10-25T09:20:51.609Z,19.02
2022-10-25T09:23:29.361Z,19.13
2022-10-25T09:26:27.505Z,19.05
2022-10-25T09:29:04.929Z,19.08
2022-10-25T09:31:37.854Z,18.95
2022-10-25T09:34:08.164Z,19.17
2022-10-25T09:36:41.126Z,18.55
2022-10-25T09:39:19.782Z,18.41
2022-10-25T09:41:50.477Z,18.87
2022-10-25T09:44:41.027Z,19.08
2022-10-25T09:47:17.744Z,19.16
2022-10-25T09:50:18.024Z,18.98
2022-10-25T09:52:45.467Z,19.33
2022-10-25T09:55:29.890Z,19.33
2022-10-25T09:57:57.730Z,19.06
2022-10-25T10:00:25.516Z,18.90
2022-10-25T10:02:53.385Z,18.57
2022-10-25T10:05:22.113Z,19.03
2022-10-25T10:07:50.872Z,18.88
2022-10-25T10:10:22.907Z,18.79
2022-10-25T10:12:55.612Z,18.46
2022-10-25T10:15:28.125Z,17.67
2022-10-25T10:18:25.710Z,18.32
2022-10-25T10:21:11.561Z,18.53
2022-10-25T10:23:47.343Z,19.00
2022-10-25T10:26:18.501Z,19.23
2022-10-25T10:28:50.848Z,19.06
2022-10-25T10:31:19.061Z,18.92
2022-10-25T10:33:50.553Z,19.23
2022-10-25T10:36:23.554Z,19.42
2022-10-25T10:38:51.395Z,19.21
2022-10-25T10:41:29.297Z,19.57
2022-10-25T10:44:13.097Z,19.19
2022-10-25T10:46:47.713Z,19.29
2022-10-25T10:49:15.852Z,18.65
2022-10-25T10:51:45.528Z,19.05
2022-10-25T10:54:27.255Z,19.25
2022-10-25T10:56:59.816Z,19.22
2022-10-25T10:59:34.438Z,19.09
2022-10-25T11:02:20.722Z,18.97
2022-10-25T11:04:52.910Z,19.05
2022-10-25T11:07:34.086Z,19.29
2022-10-25T11:10:16.677Z,19.02
2022-10-25T11:12:44.598Z,18.65
2022-10-25T11:15:13.180Z,18.98
2022-10-25T11:17:53.833Z,18.76
2022-10-25T11:20:31.094Z,19.02
2022-10-25T11:23:13.533Z,19.43
2022-10-25T11:25:52.860Z,19.40
2022-10-25T11:28:39.102Z,19.11
2022-10-25T11:31:15.006Z,19.07
2022-10-25T11:33:42.395Z,19.67
2022-10-25T11:36:18.799Z,19.72
2022-10-25T11:39:17.227Z,19.49
2022-10-25T11:41:49.655Z,19.99
2022-10-25T11:44:41.693Z,20.04
2022-10-25T11:47:43.064Z,19.68
2022-10-25T11:50:15.339Z,19.68
2022-10-25T11:52:59.158Z,19.33
2022-10-25T11:55:40.202Z,19.42
2022-10-25T11:58:38.558Z,20.04
2022-10-25T12:01:22.339Z,19.98
2022-10-25T12:04:25.553Z,19.89
2022-10-25T12:07:27.541Z,20.54
2022-10-25T12:10:09.376Z,20.59
2022-10-25T12:12:45.640Z,20.32
2022-10-25T12:15:19.416Z,20.20
2022-10-25T12:17:47.112Z,20.43
2022-10-25T12:20:22.278Z,20.41
2022-10-25T12:22:52.283Z,20.35
2022-10-25T12:25:34.338Z,20.46
2022-10-25T12:28:24.150Z,20.84
2022-10-25T12:30:57.228Z,20.48
2022-10-25T12:33:35.337Z,20.63
2022-10-25T12:36:26.730Z,20.53
2022-10-25T12:38:55.290Z,21.06
2022-10-25T12:41:28.358Z,20.88
2022-10-25T12:44:03.898Z,20.93
2022-10-25T12:46:43.668Z,20.60
2022-10-25T12:49:26.262Z,20.87
2022-10-25T12:52:22.101Z,20.98
2022-10-25T12:55:08.902Z,21.24
2022-10-25T12:58:05.816Z,21.43
2022-10-25T13:01:02.314Z,21.61
2022-10-25T13:03:39.242Z,21.36
2022-10-25T13:06:22.023Z,21.67
2022-10-25T13:08:50.194Z,21.14
2022-10-25T13:11:17.688Z,21.06
2022-10-25T13:13:50.873Z,21.39
2022-10-25T13:16:27.789Z,21.31
2022-10-25T13:19:53.157Z,21.45
2022-10-25T13:22:40.960Z,21.01
2022-10-25T13:25:08.369Z,21.67
2022-10-25T13:27:36.785Z,21.49
2022-10-25T13:30:07.414Z,21.18
2022-10-25T13:32:36.395Z,21.51
2022-10-25T13:35:39.578Z,21.85
2022-10-25T13:38:14.813Z,21.17
2022-10-25T13:40:42.509Z,21.31
2022-10-25T13:43:20.612Z,20.96
2022-10-25T13:45:54.252Z,20.96
2022-10-25T13:48:35.219Z,21.26
2022-10-25T13:51:12.692Z,21.80
2022-10-25T13:53:43.581Z,21.46
2022-10-25T13:56:16.339Z,21.57
2022-10-25T13:58:52.904Z,21.62
2022-10-25T14:01:25.022Z,22.12
2022-10-25T14:04:03.444Z,22.20
2022-10-25T14:06:35.797Z,22.47
2022-10-25T14:09:11.680Z,22.35
2022-10-25T14:12:11.983Z,22.39
2022-10-25T14:15:03.975Z,22.14
2022-10-25T14:17:37.887Z,22.46
2022-10-25T14:20:10.027Z,22.16
2022-10-25T14:22:41.442Z,22.51
2022-10-25T14:25:18.230Z,22.62
2022-10-25T14:27:45.639Z,22.63
2022-10-25T14:30:20.516Z,22.37
2022-10-25T14:33:01.176Z,22.18
2022-10-25T14:35:35.099Z,22.18
2022-10-25T14:38:04.318Z,22.17
2022-10-25T14:40:32.100Z,21.93
2022-10-25T14:43:23.183Z,22.15
2022-10-25T14:46:01.437Z,21.90
2022-10-25T14:48:29.572Z,21.43
2022-10-25T14:50:59.611Z,21.80
2022-10-25T14:53:28.568Z,21.49
2022-10-25T14:56:01.705Z,21.78
2022-10-25T14:58:42.479Z,21.84
2022-10-25T15:01:12.430Z,21.33
2022-10-25T15:03:42.647Z,21.30
2022-10-25T15:06:12.805Z,21.61
2022-10-25T15:08:41.373Z,21.75
2022-10-25T15:11:14.584Z,21.57
2022-10-25T15:13:44.289Z,21.56
2022-10-25T15:16:44.172Z,21.39
2022-10-25T15:19:18.353Z,21.12
2022-10-25T15:21:51.934Z,21.47
2022-10-25T15:24:22.402Z,21.26
2022-10-25T15:26:52.824Z,21.18
2022-10-25T15:32:24.449Z,21.32
2022-10-25T15:34:54.235Z,21.36
2022-10-25T15:37:22.962Z,21.31
2022-10-25T15:39:52.807Z,21.08
2022-10-25T15:42:22.032Z,21.12
2022-10-25T15:44:49.645Z,21.03
2022-10-25T15:47:32.965Z,21.09
2022-10-25T15:50:02.765Z,21.13
2022-10-25T15:52:30.274Z,21.02
2022-10-25T15:54:57.705Z,20.82
2022-10-25T15:57:27.334Z,20.90
2022-10-25T15:59:54.845Z,20.72
2022-10-25T16:02:26.328Z,20.86
2022-10-25T16:04:54.478Z,20.86
2022-10-25T16:07:22.369Z,20.84
2022-10-25T16:09:49.845Z,20.83
2022-10-25T16:12:20.934Z,20.76
2022-10-25T16:14:49.652Z,20.72
2022-10-25T16:17:17.413Z,20.61
2022-10-25T16:19:44.884Z,20.60
2022-10-25T16:22:12.389Z,20.56
2022-10-25T16:24:40.228Z,20.51
2022-10-25T16:27:07.796Z,20.44
2022-10-25T16:29:35.286Z,20.35
2022-10-25T16:32:04.082Z,20.22
2022-10-25T16:34:31.747Z,20.21
2022-10-25T16:36:59.447Z,20.23
2022-10-25T16:39:27.265Z,20.17
2022-10-25T16:41:56.679Z,20.14
2022-10-25T16:44:24.275Z,20.12
2022-10-25T16:46:52.104Z,20.06
2022-10-25T16:49:20.386Z,20.01
2022-10-25T16:51:50.191Z,19.96
2022-10-25T16:54:23.884Z,19.89
2022-10-25T16:56:52.195Z,19.85
2022-10-25T16:59:19.891Z,19.84
2022-10-25T17:01:54.271Z,19.81
2022-10-25T17:04:26.385Z,19.75
2022-10-25T17:06:54.005Z,19.61
2022-10-25T17:09:22.163Z,19.61
2022-10-25T17:11:49.728Z,19.48
2022-10-25T17:14:17.205Z,19.36
2022-10-25T17:16:45.301Z,19.28
2022-10-25T17:19:12.966Z,19.28
2022-10-25T17:21:40.478Z,19.07
2022-10-25T17:24:09.696Z,18.78
2022-10-25T17:26:38.341Z,18.85
2022-10-25T17:29:05.896Z,18.82
2022-10-25T17:31:33.645Z,18.58
2022-10-25T17:34:01.642Z,18.47
2022-10-25T17:36:31.699Z,18.39
2022-10-25T17:39:00.355Z,18.32
2022-10-25T17:41:28.218Z,18.34
2022-10-25T17:43:56.871Z,18.34
2022-10-25T17:46:29.270Z,18.12
2022-10-25T17:49:03.172Z,18.13
2022-10-25T17:51:32.364Z,18.16
2022-10-25T17:53:59.990Z,18.14
2022-10-25T17:56:28.050Z,18.11
2022-10-25T17:58:57.212Z,17.92
2022-10-25T18:01:27.758Z,17.79
2022-10-25T18:03:55.763Z,17.81
2022-10-25T18:06:25.248Z,17.69
2022-10-25T18:08:57.931Z,17.59
2022-10-25T18:11:27.217Z,17.59
2022-10-25T18:13:58.159Z,17.47
2022-10-25T18:16:27.788Z,17.53
2022-10-25T18:18:57.539Z,17.56
2022-10-25T18:21:26.693Z,17.59
2022-10-25T18:23:55.828Z,17.15
2022-10-25T18:26:24.496Z,17.20
2022-10-25T18:28:52.698Z,17.31
2022-10-25T18:31:21.115Z,17.08
2022-10-25T18:33:48.914Z,17.22
2022-10-25T18:36:19.393Z,17.03
2022-10-25T18:38:48.469Z,17.11
2022-10-25T18:41:22.036Z,17.14
2022-10-25T18:43:50.515Z,16.79
2022-10-25T18:46:19.032Z,16.94
2022-10-25T18:48:52.731Z,16.94
2022-10-25T18:51:23.415Z,16.95
2022-10-25T18:53:59.785Z,17.01
2022-10-25T18:56:29.641Z,17.00
2022-10-25T18:58:58.992Z,16.90
2022-10-25T19:01:32.738Z,16.85
2022-10-25T19:04:03.586Z,16.90
2022-10-25T19:06:32.073Z,16.92
2022-10-25T19:09:00.207Z,16.96
2022-10-25T19:11:28.121Z,16.99
2022-10-25T19:13:56.510Z,16.88
2022-10-25T19:16:24.144Z,16.87
2022-10-25T19:18:52.145Z,16.91
2022-10-25T19:21:21.159Z,16.75
2022-10-25T19:23:48.844Z,16.37
2022-10-25T19:26:19.078Z,16.45
2022-10-25T19:28:47.608Z,16.58
2022-10-25T19:31:17.369Z,16.50
2022-10-25T19:33:49.325Z,16.48
2022-10-25T19:36:17.912Z,16.65
2022-10-25T19:38:48.317Z,16.73
2022-10-25T19:41:17.804Z,16.67
2022-10-25T19:43:46.209Z,16.70
2022-10-25T19:46:14.514Z,16.46
2022-10-25T19:48:42.317Z,16.20
2022-10-25T19:51:18.352Z,16.40
2022-10-25T19:53:46.493Z,16.41
2022-10-25T19:56:17.509Z,16.31
2022-10-25T19:58:45.348Z,16.41
2022-10-25T20:01:15.662Z,16.34
2022-10-25T20:03:44.945Z,16.28
2022-10-25T20:06:21.597Z,16.26
2022-10-25T20:08:53.216Z,16.02
2022-10-25T20:11:22.246Z,15.94
2022-10-25T20:13:54.422Z,15.87
2022-10-25T20:16:22.839Z,15.86
2022-10-25T20:18:50.549Z,15.87
2022-10-25T20:21:23.707Z,15.91
2022-10-25T20:24:03.534Z,15.94
2022-10-25T20:26:36.157Z,15.94
2022-10-25T20:29:17.062Z,16.00
2022-10-25T20:31:47.857Z,15.68
2022-10-25T20:34:16.436Z,15.81
2022-10-25T20:36:44.274Z,15.74
2022-10-25T20:39:12.617Z,15.86
2022-10-25T20:41:40.454Z,15.95
2022-10-25T20:44:09.270Z,16.01
2022-10-25T20:46:36.915Z,16.13
2022-10-25T20:49:07.377Z,16.15
2022-10-25T20:51:35.198Z,15.98
2022-10-25T20:54:09.332Z,16.09
2022-10-25T20:56:39.234Z,16.16
2022-10-25T20:59:06.762Z,16.15
2022-10-25T21:01:34.438Z,16.00
2022-10-25T21:04:02.809Z,15.78
2022-10-25T21:06:30.253Z,16.00
2022-10-25T21:08:57.693Z,16.17
2022-10-25T21:11:25.440Z,16.34
2022-10-25T21:13:52.914Z,16.40
2022-10-25T21:16:20.352Z,16.39
2022-10-25T21:18:48.061Z,15.87
2022-10-25T21:21:19.836Z,15.98
2022-10-25T21:23:47.792Z,15.93
2022-10-25T21:26:15.840Z,15.95
2022-10-25T21:28:43.338Z,15.75
2022-10-25T21:31:13.085Z,15.65
2022-10-25T21:33:49.725Z,15.57
2022-10-25T21:36:19.786Z,15.49
2022-10-25T21:38:47.580Z,15.46
2022-10-25T21:41:17.078Z,15.41
2022-10-25T21:43:46.595Z,15.58
2022-10-25T21:46:15.800Z,15.57
2022-10-25T21:48:44.012Z,15.62
2022-10-25T21:51:11.444Z,15.64
2022-10-25T21:53:39.267Z,15.68
2022-10-25T21:56:08.441Z,15.61
2022-10-25T21:58:36.094Z,15.48
2022-10-25T22:01:07.475Z,15.59
2022-10-25T22:03:35.282Z,15.67
2022-10-25T22:06:05.802Z,15.65
2022-10-25T22:08:33.205Z,15.69
2022-10-25T22:11:02.970Z,15.69
2022-10-25T22:13:30.409Z,15.71
2022-10-25T22:16:06.232Z,15.73
2022-10-25T22:18:33.958Z,15.72
2022-10-25T22:21:04.012Z,15.65
2022-10-25T22:23:31.887Z,15.60
2022-10-25T22:26:02.797Z,15.59
2022-10-25T22:28:30.451Z,15.64
2022-10-25T22:31:03.403Z,15.65
2022-10-25T22:33:31.115Z,15.64
2022-10-25T22:36:09.399Z,15.51
2022-10-25T22:38:37.539Z,15.65
2022-10-25T22:41:07.233Z,15.37
2022-10-25T22:43:35.706Z,15.21
2022-10-25T22:46:05.225Z,15.51
2022-10-25T22:48:34.497Z,15.59
2022-10-25T22:51:02.301Z,15.65
2022-10-25T22:53:30.833Z,15.60
2022-10-25T22:56:00.846Z,15.64
2022-10-25T22:58:29.335Z,15.56
2022-10-25T23:01:09.346Z,15.41
2022-10-25T23:03:39.135Z,15.27
2022-10-25T23:06:09.356Z,15.22
2022-10-25T23:08:36.877Z,15.23
2022-10-25T23:11:10.725Z,15.33
2022-10-25T23:13:39.240Z,15.36
2022-10-25T23:16:06.889Z,15.48
2022-10-25T23:18:34.780Z,15.47
2022-10-25T23:21:03.183Z,15.52
2022-10-25T23:23:34.306Z,15.44
2022-10-25T23:26:02.317Z,15.52
2022-10-25T23:28:33.769Z,15.43
2022-10-25T23:31:05.546Z,15.47
2022-10-25T23:33:33.841Z,15.48
2022-10-25T23:36:06.645Z,15.32
2022-10-25T23:38:34.821Z,15.38
2022-10-25T23:41:02.271Z,15.34
2022-10-25T23:43:30.012Z,15.34
2022-10-25T23:45:57.997Z,15.28
2022-10-25T23:48:25.414Z,15.22
2022-10-25T23:53:34.720Z,15.05
2022-10-25T23:56:02.923Z,15.10
2022-10-25T23:58:30.432Z,15.19
